Time;durP1;ratioP1;P1;durP2;ratioP2;P2;SDS_P1;SDS_P2;PMS_P1;PMS_P2;Temp;Humidity;BMP_temperature;BMP_pressure;BME280_temperature;BME280_humidity;BME280_pressure;Samples;Min_cycle;Max_cycle;Signal;HPM_P1;HPM_P2
2023/12/01 00:00:50;;;;;;;14.13;8.00;;;4.70;79.00;;;;;;4904882;29;20047;-74
2023/12/01 00:03:15;;;;;;;15.52;8.73;;;4.70;79.00;;;;;;4905058;29;20043;-74
2023/12/01 00:05:41;;;;;;;14.82;8.63;;;4.70;79.10;;;;;;4900186;29;20381;-74
2023/12/01 00:08:07;;;;;;;15.80;8.77;;;4.70;79.00;;;;;;4891868;29;20041;-74
2023/12/01 00:10:33;;;;;;;15.65;8.75;;;4.70;79.00;;;;;;4901855;29;20492;-74
2023/12/01 00:12:58;;;;;;;14.68;8.77;;;4.70;79.00;;;;;;4904267;29;20032;-74
2023/12/01 00:15:24;;;;;;;15.88;9.18;;;4.70;79.00;;;;;;4917523;29;20036;-74
2023/12/01 00:17:50;;;;;;;14.73;8.60;;;4.70;79.00;;;;;;4904894;29;20031;-74
2023/12/01 00:20:16;;;;;;;14.75;8.75;;;4.70;79.10;;;;;;4902368;29;20040;-74
2023/12/01 00:22:42;;;;;;;14.63;8.35;;;4.60;79.00;;;;;;4913361;29;20478;-74
2023/12/01 00:25:08;;;;;;;14.40;8.07;;;4.70;79.10;;;;;;4921675;29;20059;-74
2023/12/01 00:27:33;;;;;;;14.93;8.27;;;4.60;79.00;;;;;;4913801;29;20127;-74
2023/12/01 00:29:59;;;;;;;13.38;8.13;;;4.70;79.10;;;;;;4918436;29;20453;-74
2023/12/01 00:32:25;;;;;;;14.43;8.32;;;4.70;79.10;;;;;;4923403;29;20080;-74
2023/12/01 00:34:51;;;;;;;16.50;9.07;;;4.60;79.00;;;;;;4903218;29;20482;-74
2023/12/01 00:37:16;;;;;;;16.05;8.57;;;4.60;79.00;;;;;;4924326;29;20032;-74
2023/12/01 00:39:42;;;;;;;16.45;8.75;;;4.60;79.00;;;;;;4901668;29;20048;-74
2023/12/01 00:42:09;;;;;;;15.88;8.05;;;4.60;79.00;;;;;;4885675;29;20050;-74
2023/12/01 00:44:35;;;;;;;14.43;8.00;;;4.60;79.00;;;;;;4914296;29;20083;-74
2023/12/01 00:47:00;;;;;;;14.68;8.23;;;4.60;79.10;;;;;;4892662;29;20040;-74
2023/12/01 00:49:26;;;;;;;15.65;8.60;;;4.60;79.00;;;;;;4915186;29;20083;-74
2023/12/01 00:51:52;;;;;;;16.77;8.95;;;4.60;79.00;;;;;;4913036;29;20028;-74
2023/12/01 00:54:17;;;;;;;14.48;8.63;;;4.60;79.00;;;;;;4915624;29;20040;-74
2023/12/01 00:56:43;;;;;;;14.63;8.07;;;4.60;79.00;;;;;;4893544;29;20091;-74
2023/12/01 00:59:09;;;;;;;14.93;7.80;;;4.60;79.00;;;;;;4909315;29;20059;-74
2023/12/01 01:01:35;;;;;;;14.48;7.55;;;4.60;79.00;;;;;;4886585;29;20401;-74
2023/12/01 01:04:01;;;;;;;14.27;8.75;;;4.60;79.00;;;;;;4914373;29;20040;-74
2023/12/01 01:06:27;;;;;;;14.95;8.27;;;4.60;79.00;;;;;;4918367;29;20507;-74
2023/12/01 01:08:53;;;;;;;14.63;8.07;;;4.60;79.00;;;;;;4898744;29;20032;-74
2023/12/01 01:11:19;;;;;;;14.05;8.10;;;4.60;79.10;;;;;;4900083;29;20441;-74
2023/12/01 01:13:44;;;;;;;14.43;7.88;;;4.60;79.00;;;;;;4875701;29;20028;-74
2023/12/01 01:16:10;;;;;;;15.70;8.50;;;4.50;79.00;;;;;;4886197;29;20478;-74
2023/12/01 01:18:36;;;;;;;16.70;8.55;;;4.60;79.00;;;;;;4906322;29;20050;-74
2023/12/01 01:21:02;;;;;;;15.85;8.80;;;4.50;79.00;;;;;;4903091;29;20501;-74
2023/12/01 01:23:29;;;;;;;15.75;8.63;;;4.50;79.00;;;;;;4921333;29;20489;-74
2023/12/01 01:25:55;;;;;;;17.60;9.02;;;4.50;79.00;;;;;;4904013;29;20078;-74
2023/12/01 01:28:20;;;;;;;17.67;9.10;;;4.50;79.00;;;;;;4895715;29;20473;-74
2023/12/01 01:30:46;;;;;;;15.77;8.50;;;4.50;79.00;;;;;;4900196;29;20032;-74
2023/12/01 01:33:12;;;;;;;17.25;8.65;;;4.50;79.60;;;;;;4926720;29;20024;-74
2023/12/01 01:35:38;;;;;;;18.35;8.82;;;4.50;79.00;;;;;;4923750;29;20040;-74
2023/12/01 01:38:03;;;;;;;17.63;9.20;;;4.50;79.00;;;;;;4900698;29;20036;-74
2023/12/01 01:40:29;;;;;;;17.25;9.40;;;4.50;79.00;;;;;;4903541;29;20032;-73
2023/12/01 01:42:55;;;;;;;16.85;9.23;;;4.50;79.00;;;;;;4916726;29;20038;-75
2023/12/01 01:45:20;;;;;;;18.58;9.57;;;4.50;79.00;;;;;;4902898;29;20036;-74
2023/12/01 01:47:46;;;;;;;19.45;9.85;;;4.50;79.00;;;;;;4924243;29;20032;-74
2023/12/01 01:50:12;;;;;;;16.85;8.88;;;4.50;79.00;;;;;;4926177;29;20063;-74
2023/12/01 01:52:40;;;;;;;18.27;9.65;;;4.50;79.00;;;;;;4885877;29;20134;-74
2023/12/01 01:55:07;;;;;;;19.90;9.52;;;4.50;79.00;;;;;;4896983;29;20036;-74
2023/12/01 01:57:43;;;;;;;18.27;8.82;;;4.50;79.00;;;;;;4915133;29;20072;-74
2023/12/01 02:00:10;;;;;;;19.15;9.93;;;4.50;79.00;;;;;;4899658;29;20036;-74
2023/12/01 02:02:39;;;;;;;22.30;10.23;;;4.40;78.90;;;;;;4909487;29;20134;-74
2023/12/01 02:05:12;;;;;;;18.33;9.18;;;4.50;79.00;;;;;;4902605;29;20116;-74
2023/12/01 02:07:39;;;;;;;17.90;9.43;;;4.40;78.90;;;;;;4922393;29;20543;-74
2023/12/01 02:10:06;;;;;;;18.65;9.65;;;4.40;78.90;;;;;;4919716;29;20119;-75
2023/12/01 02:12:32;;;;;;;19.25;9.75;;;4.40;78.90;;;;;;4917714;29;20032;-74
2023/12/01 02:14:58;;;;;;;22.90;10.50;;;4.50;79.00;;;;;;4904641;29;20481;-74
2023/12/01 02:17:23;;;;;;;21.08;10.20;;;4.40;78.90;;;;;;4920837;29;20020;-74
2023/12/01 02:19:51;;;;;;;19.75;10.15;;;4.50;79.00;;;;;;4902935;29;20496;-74
2023/12/01 02:22:17;;;;;;;19.38;10.30;;;4.40;79.00;;;;;;4918920;29;20040;-74
2023/12/01 02:24:43;;;;;;;20.42;9.88;;;4.40;79.00;;;;;;4903942;29;20115;-74
2023/12/01 02:27:09;;;;;;;20.15;10.13;;;4.40;78.90;;;;;;4917776;29;20457;-74
2023/12/01 02:29:34;;;;;;;19.83;10.23;;;4.40;78.90;;;;;;4907108;29;20063;-74
2023/12/01 02:32:00;;;;;;;20.45;10.38;;;4.40;78.90;;;;;;4918065;29;20063;-74
2023/12/01 02:34:26;;;;;;;22.40;11.48;;;4.40;78.90;;;;;;4911336;29;20130;-74
2023/12/01 02:36:53;;;;;;;23.90;11.13;;;4.40;78.90;;;;;;4900944;29;20028;-74
2023/12/01 02:39:19;;;;;;;23.27;12.10;;;4.40;79.00;;;;;;4914909;29;20373;-74
2023/12/01 02:41:45;;;;;;;20.48;10.10;;;4.40;78.90;;;;;;4914919;29;20039;-74
2023/12/01 02:44:11;;;;;;;24.50;12.07;;;4.40;78.90;;;;;;4909205;29;20404;-74
2023/12/01 02:46:37;;;;;;;20.45;10.93;;;4.40;79.00;;;;;;4900528;29;20039;-74
2023/12/01 02:49:03;;;;;;;21.30;10.88;;;4.40;79.00;;;;;;4921495;29;20540;-74
2023/12/01 02:51:28;;;;;;;19.80;11.50;;;4.40;79.00;;;;;;4916390;29;20079;-74
2023/12/01 02:53:54;;;;;;;22.08;10.73;;;4.40;78.90;;;;;;4899055;29;20051;-74
2023/12/01 02:56:20;;;;;;;21.10;10.73;;;4.40;78.90;;;;;;4900834;29;20109;-74
2023/12/01 02:58:45;;;;;;;22.25;10.32;;;4.40;79.00;;;;;;4906083;29;20085;-74
2023/12/01 03:01:11;;;;;;;19.38;10.43;;;4.40;78.90;;;;;;4899708;29;20028;-73
2023/12/01 03:03:37;;;;;;;22.65;12.20;;;4.40;78.90;;;;;;4886303;29;20114;-74
2023/12/01 03:06:03;;;;;;;22.55;12.73;;;4.30;78.90;;;;;;4904109;29;20154;-74
2023/12/01 03:08:29;;;;;;;21.70;11.73;;;4.30;78.90;;;;;;4903109;29;20044;-74
2023/12/01 03:10:55;;;;;;;21.20;11.40;;;4.40;78.90;;;;;;4903503;29;20465;-74
2023/12/01 03:13:22;;;;;;;22.67;12.23;;;4.40;78.90;;;;;;4896338;29;20032;-74
2023/12/01 03:15:49;;;;;;;20.48;10.95;;;4.40;79.00;;;;;;4917570;29;20028;-74
2023/12/01 03:18:15;;;;;;;22.85;10.73;;;4.40;79.00;;;;;;4922245;29;20540;-73
2023/12/01 03:20:41;;;;;;;20.27;11.35;;;4.40;79.00;;;;;;4904141;29;20060;-74
2023/12/01 03:23:07;;;;;;;22.35;12.05;;;4.40;79.00;;;;;;4912156;29;20457;-74
2023/12/01 03:25:33;;;;;;;24.27;12.32;;;4.40;79.00;;;;;;4900507;29;20066;-74
2023/12/01 03:27:58;;;;;;;19.10;10.88;;;4.40;79.00;;;;;;4914723;29;20032;-74
2023/12/01 03:30:24;;;;;;;20.05;11.10;;;4.40;79.00;;;;;;4912581;29;20564;-74
2023/12/01 03:32:52;;;;;;;21.13;11.32;;;4.30;78.90;;;;;;4911279;29;20028;-74
2023/12/01 03:35:20;;;;;;;19.52;10.10;;;4.40;79.00;;;;;;4902027;29;20529;-74
2023/12/01 03:37:47;;;;;;;19.70;11.05;;;4.40;79.00;;;;;;4917233;29;20028;-73
2023/12/01 03:40:14;;;;;;;21.98;12.15;;;4.40;79.00;;;;;;4916361;29;20057;-73
2023/12/01 03:42:47;;;;;;;19.65;11.80;;;4.40;78.90;;;;;;4904572;29;20497;-73
2023/12/01 03:45:13;;;;;;;17.52;9.98;;;4.40;79.00;;;;;;4912214;29;20036;-73
2023/12/01 03:47:41;;;;;;;18.80;10.73;;;4.40;78.90;;;;;;4913453;29;20048;-73
2023/12/01 03:50:11;;;;;;;18.55;10.63;;;4.40;79.00;;;;;;4905486;29;20474;-74
2023/12/01 03:52:38;;;;;;;20.42;10.95;;;4.40;79.00;;;;;;4905847;29;20040;-74
2023/12/01 03:55:04;;;;;;;18.08;10.10;;;4.40;79.00;;;;;;4894416;29;20150;-74
2023/12/01 03:57:31;;;;;;;19.85;10.88;;;4.40;79.00;;;;;;4919510;29;20036;-74
2023/12/01 03:59:57;;;;;;;18.90;10.23;;;4.40;79.00;;;;;;4913898;29;20033;-74
2023/12/01 04:02:23;;;;;;;18.65;9.93;;;4.40;79.00;;;;;;4903932;29;20434;-74
2023/12/01 04:04:52;;;;;;;18.55;10.52;;;4.30;78.90;;;;;;4893000;29;20032;-74
2023/12/01 04:07:18;;;;;;;18.33;10.35;;;4.40;79.00;;;;;;4896453;29;20037;-74
2023/12/01 04:09:43;;;;;;;18.30;10.52;;;4.40;78.90;;;;;;4914315;29;20032;-73
2023/12/01 04:12:09;;;;;;;18.98;10.38;;;4.30;78.90;;;;;;4890370;29;20021;-74
2023/12/01 04:14:35;;;;;;;16.70;9.45;;;4.40;78.90;;;;;;4913059;29;20036;-74
2023/12/01 04:17:08;;;;;;;17.50;9.98;;;4.30;78.90;;;;;;4898818;29;20545;-74
2023/12/01 04:19:38;;;;;;;20.30;10.70;;;4.40;79.00;;;;;;4884546;29;20037;-73
2023/12/01 04:22:07;;;;;;;19.27;10.43;;;4.40;79.00;;;;;;4917023;29;20541;-73
2023/12/01 04:24:34;;;;;;;16.35;8.82;;;4.40;79.00;;;;;;4916048;29;20052;-74
2023/12/01 04:27:07;;;;;;;17.48;10.20;;;4.40;79.00;;;;;;4897423;29;20044;-74
2023/12/01 04:29:32;;;;;;;16.92;9.25;;;4.40;79.00;;;;;;4895349;29;20036;-74
2023/12/01 04:31:58;;;;;;;15.43;9.38;;;4.30;78.90;;;;;;4913191;29;20025;-74
2023/12/01 04:34:26;;;;;;;17.20;10.57;;;4.30;78.90;;;;;;4898640;29;20433;-74
2023/12/01 04:36:53;;;;;;;16.48;8.90;;;4.40;78.90;;;;;;4916217;29;20521;-74
2023/12/01 04:39:20;;;;;;;17.67;9.60;;;4.40;78.90;;;;;;4915996;29;20048;-74
2023/12/01 04:41:47;;;;;;;17.15;9.43;;;4.30;78.90;;;;;;4901482;29;20078;-74
2023/12/01 04:44:13;;;;;;;18.77;10.15;;;4.40;78.90;;;;;;4902358;29;20040;-74
2023/12/01 04:46:39;;;;;;;17.45;9.60;;;4.40;78.90;;;;;;4919510;29;20043;-74
2023/12/01 04:49:08;;;;;;;17.75;9.43;;;4.30;78.90;;;;;;4901336;29;20075;-74
2023/12/01 04:51:35;;;;;;;15.57;9.27;;;4.40;79.00;;;;;;4918878;29;20122;-74
2023/12/01 04:54:05;;;;;;;16.65;9.57;;;4.40;79.00;;;;;;4902513;29;20024;-74
2023/12/01 04:56:31;;;;;;;16.58;9.02;;;4.40;78.90;;;;;;4918704;29;20095;-74
2023/12/01 04:58:57;;;;;;;15.52;8.95;;;4.40;78.90;;;;;;4917929;29;20040;-74
2023/12/01 05:01:22;;;;;;;16.48;9.20;;;4.40;78.90;;;;;;4883884;29;20565;-74
2023/12/01 05:03:48;;;;;;;16.92;9.43;;;4.40;78.90;;;;;;4899451;29;20464;-74
2023/12/01 05:06:14;;;;;;;19.42;10.23;;;4.40;78.90;;;;;;4915515;29;20068;-74
2023/12/01 05:08:40;;;;;;;17.15;9.68;;;4.40;79.00;;;;;;4900736;29;20369;-73
2023/12/01 05:11:05;;;;;;;17.67;9.85;;;4.40;79.00;;;;;;4913168;29;20036;-74
2023/12/01 05:13:31;;;;;;;14.52;9.07;;;4.40;79.00;;;;;;4916991;29;20474;-73
2023/12/01 05:15:57;;;;;;;18.25;10.25;;;4.40;78.90;;;;;;4917151;29;20137;-73
2023/12/01 05:18:23;;;;;;;15.93;9.65;;;4.40;78.90;;;;;;4884150;29;20036;-74
2023/12/01 05:20:49;;;;;;;15.85;9.35;;;4.40;79.00;;;;;;4918083;29;20149;-74
2023/12/01 05:23:15;;;;;;;16.27;9.32;;;4.40;78.90;;;;;;4922238;29;20043;-74
2023/12/01 05:25:42;;;;;;;17.42;9.55;;;4.40;78.90;;;;;;4885454;29;20513;-73
2023/12/01 05:28:09;;;;;;;17.67;9.60;;;4.40;78.90;;;;;;4913341;29;20044;-73
2023/12/01 05:30:38;;;;;;;16.58;8.93;;;4.40;78.90;;;;;;4914709;29;20048;-74
2023/12/01 05:33:04;;;;;;;18.33;10.00;;;4.40;79.00;;;;;;4899252;29;20171;-73
2023/12/01 05:35:31;;;;;;;18.25;10.00;;;4.40;79.00;;;;;;4914724;29;20120;-73
2023/12/01 05:37:58;;;;;;;18.73;9.45;;;4.40;78.90;;;;;;4916004;29;20107;-74
2023/12/01 05:40:27;;;;;;;17.55;9.15;;;4.40;79.60;;;;;;4917328;29;20071;-74
2023/12/01 05:42:55;;;;;;;15.68;9.38;;;4.40;78.90;;;;;;4914610;29;20068;-74
2023/12/01 05:45:35;;;;;;;15.75;9.48;;;4.40;78.90;;;;;;4916526;29;20028;-75
2023/12/01 05:48:02;;;;;;;17.17;9.40;;;4.40;79.00;;;;;;4914539;29;20032;-73
2023/12/01 05:50:30;;;;;;;16.23;9.00;;;4.40;78.90;;;;;;4904531;29;20040;-73
2023/12/01 05:53:00;;;;;;;16.58;10.20;;;4.40;78.90;;;;;;4899053;29;20306;-74
2023/12/01 05:55:30;;;;;;;16.02;9.50;;;4.40;78.90;;;;;;4895730;29;20060;-75
2023/12/01 05:58:04;;;;;;;18.25;9.32;;;4.40;78.90;;;;;;4876251;29;20041;-75
2023/12/01 06:00:31;;;;;;;16.20;8.85;;;4.40;78.90;;;;;;4915414;29;20118;-74
2023/12/01 06:02:59;;;;;;;15.75;9.32;;;4.40;78.90;;;;;;4889578;29;20501;-74
2023/12/01 06:05:25;;;;;;;16.73;9.25;;;4.40;78.90;;;;;;4913910;29;20032;-75
2023/12/01 06:07:54;;;;;;;16.98;10.40;;;4.40;78.90;;;;;;4914657;29;20025;-74
2023/12/01 06:10:21;;;;;;;18.38;10.18;;;4.40;78.90;;;;;;4915162;29;20036;-75
2023/12/01 06:12:47;;;;;;;17.30;10.07;;;4.40;78.90;;;;;;4911477;29;20466;-75
2023/12/01 06:15:15;;;;;;;16.00;9.85;;;4.40;78.90;;;;;;4920533;29;20032;-75
2023/12/01 06:17:42;;;;;;;16.98;9.38;;;4.40;78.90;;;;;;4880376;29;20024;-77
2023/12/01 06:20:19;;;;;;;17.63;9.32;;;4.40;78.90;;;;;;4911718;29;20630;-76
2023/12/01 06:22:47;;;;;;;18.08;9.73;;;4.40;78.90;;;;;;4910105;29;20043;-74
2023/12/01 06:25:14;;;;;;;19.23;10.10;;;4.40;78.90;;;;;;4899377;29;20044;-73
2023/12/01 06:27:41;;;;;;;18.73;10.13;;;4.40;78.90;;;;;;4906445;29;20106;-74
2023/12/01 06:30:11;;;;;;;14.43;9.32;;;4.40;78.90;;;;;;4897577;29;20028;-74
2023/12/01 06:32:41;;;;;;;17.25;9.75;;;4.40;78.90;;;;;;4894641;29;20179;-74
2023/12/01 06:35:13;;;;;;;16.65;9.50;;;4.40;78.90;;;;;;4914634;29;20364;-74
2023/12/01 06:37:40;;;;;;;18.42;10.13;;;4.40;78.90;;;;;;4916773;29;20032;-74
2023/12/01 06:40:13;;;;;;;18.17;9.77;;;4.40;78.90;;;;;;4893706;29;20088;-76
2023/12/01 06:42:41;;;;;;;16.73;9.57;;;4.40;78.90;;;;;;4907483;29;20482;-73
2023/12/01 06:45:08;;;;;;;15.50;9.00;;;4.40;78.80;;;;;;4910682;29;20028;-75
2023/12/01 06:47:33;;;;;;;17.55;9.45;;;4.40;78.80;;;;;;4918699;29;20405;-74
2023/12/01 06:49:59;;;;;;;16.17;9.23;;;4.40;78.80;;;;;;4926914;29;20346;-74
2023/12/01 06:52:25;;;;;;;15.45;9.02;;;4.40;78.80;;;;;;4911608;29;20040;-74
2023/12/01 06:54:50;;;;;;;15.45;7.63;;;4.40;78.90;;;;;;4922975;29;20044;-74
2023/12/01 06:57:16;;;;;;;14.65;8.40;;;4.40;78.80;;;;;;4905077;29;20039;-74
2023/12/01 06:59:42;;;;;;;14.45;8.35;;;4.40;78.80;;;;;;4898604;29;20050;-74
2023/12/01 07:02:07;;;;;;;13.30;7.75;;;4.40;78.80;;;;;;4904639;29;20043;-74
2023/12/01 07:04:33;;;;;;;14.77;8.60;;;4.40;78.90;;;;;;4901991;29;20044;-74
2023/12/01 07:07:03;;;;;;;15.98;8.25;;;4.40;78.80;;;;;;4915490;29;20028;-73
2023/12/01 07:09:28;;;;;;;13.00;7.50;;;4.40;78.80;;;;;;4918499;29;20096;-74
2023/12/01 07:11:54;;;;;;;14.38;7.95;;;4.40;78.80;;;;;;4916819;29;20024;-73
2023/12/01 07:14:23;;;;;;;14.68;7.57;;;4.40;78.80;;;;;;4915840;29;20044;-74
2023/12/01 07:16:49;;;;;;;14.45;8.23;;;4.40;78.80;;;;;;4909783;29;20036;-74
2023/12/01 07:19:16;;;;;;;14.07;7.80;;;4.40;78.80;;;;;;4917655;29;21407;-74
2023/12/01 07:21:45;;;;;;;13.95;7.40;;;4.40;78.80;;;;;;4917707;29;20035;-74
2023/12/01 07:24:11;;;;;;;13.05;7.47;;;4.40;78.90;;;;;;4917558;29;20480;-74
2023/12/01 07:26:37;;;;;;;13.57;7.05;;;4.40;78.80;;;;;;4907540;29;20040;-74
2023/12/01 07:29:06;;;;;;;12.73;7.25;;;4.40;78.80;;;;;;4911282;29;20032;-74
2023/12/01 07:31:33;;;;;;;13.23;7.53;;;4.40;78.80;;;;;;4882152;29;20035;-74
2023/12/01 07:34:00;;;;;;;12.25;7.38;;;4.40;78.80;;;;;;4901156;29;20032;-74
2023/12/01 07:36:27;;;;;;;11.00;6.60;;;4.40;78.90;;;;;;4899381;29;20033;-74
2023/12/01 07:38:53;;;;;;;12.00;6.93;;;4.40;78.80;;;;;;4902057;29;20033;-74
2023/12/01 07:41:19;;;;;;;11.80;7.30;;;4.40;78.80;;;;;;4910889;29;20032;-74
2023/12/01 07:43:44;;;;;;;12.40;7.07;;;4.40;78.80;;;;;;4915795;29;20096;-75
2023/12/01 07:46:10;;;;;;;12.90;7.70;;;4.40;78.80;;;;;;4900726;29;20047;-74
2023/12/01 07:48:36;;;;;;;11.50;6.50;;;4.40;78.80;;;;;;4907653;29;20485;-74
2023/12/01 07:51:02;;;;;;;13.15;7.63;;;4.40;78.80;;;;;;4910378;29;20032;-74
2023/12/01 07:53:28;;;;;;;13.23;7.28;;;4.40;78.80;;;;;;4902529;29;20036;-74
2023/12/01 07:55:54;;;;;;;11.43;6.70;;;4.40;78.80;;;;;;4924314;29;20051;-74
2023/12/01 07:58:20;;;;;;;10.85;6.47;;;4.40;78.80;;;;;;4916119;29;20474;-75
2023/12/01 08:00:46;;;;;;;11.93;7.03;;;4.40;78.80;;;;;;4899392;29;20048;-74
2023/12/01 08:03:12;;;;;;;12.35;6.95;;;4.40;78.80;;;;;;4921687;29;20414;-74
2023/12/01 08:05:39;;;;;;;13.05;6.93;;;4.40;78.80;;;;;;4923405;29;20411;-74
2023/12/01 08:08:05;;;;;;;11.18;6.50;;;4.40;78.80;;;;;;4916596;29;20044;-74
2023/12/01 08:10:32;;;;;;;11.57;6.18;;;4.40;78.80;;;;;;4916359;29;20035;-73
2023/12/01 08:12:58;;;;;;;12.55;7.15;;;4.40;78.80;;;;;;4923865;29;20498;-74
2023/12/01 08:15:24;;;;;;;13.07;6.93;;;4.40;78.80;;;;;;4918842;29;20028;-73
2023/12/01 08:17:49;;;;;;;12.00;6.90;;;4.40;78.80;;;;;;4914133;29;20491;-76
2023/12/01 08:20:18;;;;;;;11.20;6.80;;;4.40;78.80;;;;;;4925666;29;20043;-74
2023/12/01 08:22:46;;;;;;;11.38;6.15;;;4.40;78.80;;;;;;4918752;29;20501;-74
2023/12/01 08:25:15;;;;;;;11.48;6.65;;;4.40;78.80;;;;;;4919711;29;20053;-75
2023/12/01 08:27:41;;;;;;;11.93;6.43;;;4.40;78.80;;;;;;4919381;29;20032;-76
2023/12/01 08:30:08;;;;;;;11.23;6.32;;;4.40;78.80;;;;;;4907282;29;20032;-73
2023/12/01 08:32:34;;;;;;;11.77;6.85;;;4.40;78.80;;;;;;4901392;29;20482;-73
2023/12/01 08:35:01;;;;;;;12.18;6.47;;;4.40;78.80;;;;;;4923715;29;20420;-74
2023/12/01 08:37:27;;;;;;;10.05;6.13;;;4.40;78.80;;;;;;4919775;29;20396;-73
2023/12/01 08:39:52;;;;;;;10.98;6.53;;;4.30;78.70;;;;;;4902137;29;20127;-72
2023/12/01 08:42:19;;;;;;;10.98;6.75;;;4.40;78.80;;;;;;4909854;29;20100;-73
2023/12/01 08:44:45;;;;;;;10.80;6.40;;;4.40;78.80;;;;;;4906477;29;20038;-73
2023/12/01 08:47:13;;;;;;;10.90;6.30;;;4.40;78.80;;;;;;4901963;29;20365;-73
2023/12/01 08:49:39;;;;;;;10.48;5.90;;;4.40;78.70;;;;;;4898728;29;20032;-73
2023/12/01 08:52:07;;;;;;;10.52;6.40;;;4.30;78.70;;;;;;4919201;29;20032;-73
2023/12/01 08:54:34;;;;;;;10.00;5.82;;;4.30;78.70;;;;;;4923177;29;20024;-73
2023/12/01 08:56:59;;;;;;;10.10;6.25;;;4.30;78.70;;;;;;4903273;29;20032;-72
2023/12/01 08:59:27;;;;;;;9.55;5.95;;;4.30;78.70;;;;;;4894785;29;20099;-73
2023/12/01 09:01:52;;;;;;;12.93;6.68;;;4.30;78.70;;;;;;4922881;29;20043;-73
2023/12/01 09:04:18;;;;;;;10.40;5.85;;;4.30;78.70;;;;;;4891279;29;20086;-73
2023/12/01 09:06:44;;;;;;;10.57;5.82;;;4.30;78.70;;;;;;4926488;29;20128;-72
2023/12/01 09:09:12;;;;;;;9.45;6.07;;;4.30;78.70;;;;;;4907144;29;20083;-73
2023/12/01 09:11:37;;;;;;;9.55;5.60;;;4.30;78.70;;;;;;4909013;29;20039;-73
2023/12/01 09:14:03;;;;;;;11.40;6.25;;;4.30;78.70;;;;;;4892116;29;20036;-73
2023/12/01 09:16:29;;;;;;;12.73;7.03;;;4.30;78.70;;;;;;4918663;29;20107;-73
2023/12/01 09:18:54;;;;;;;11.00;6.30;;;4.40;78.70;;;;;;4917015;29;20028;-73
2023/12/01 09:21:20;;;;;;;11.00;6.22;;;4.30;78.60;;;;;;4920426;29;20049;-73
2023/12/01 09:23:46;;;;;;;10.50;6.18;;;4.30;78.60;;;;;;4900399;29;20521;-73
2023/12/01 09:26:18;;;;;;;9.52;5.85;;;4.30;78.60;;;;;;4917702;29;20272;-73
2023/12/01 09:28:44;;;;;;;9.65;6.10;;;4.30;78.70;;;;;;4911602;29;20028;-73
2023/12/01 09:31:11;;;;;;;10.75;6.07;;;4.30;78.60;;;;;;4918950;29;20040;-73
2023/12/01 09:33:37;;;;;;;11.77;6.35;;;4.30;78.70;;;;;;4893503;29;20080;-73
2023/12/01 09:36:04;;;;;;;11.43;6.40;;;4.30;78.60;;;;;;4906544;29;20478;-73
2023/12/01 09:38:31;;;;;;;11.00;6.05;;;4.30;78.60;;;;;;4901175;29;20028;-73
2023/12/01 09:40:57;;;;;;;9.63;5.63;;;4.30;78.60;;;;;;4917388;29;20044;-72
2023/12/01 09:43:23;;;;;;;9.38;5.65;;;4.30;78.60;;;;;;4910714;29;20032;-73
2023/12/01 09:45:52;;;;;;;11.30;6.15;;;4.30;78.60;;;;;;4924871;29;20024;-72
2023/12/01 09:48:19;;;;;;;8.88;5.32;;;4.30;78.60;;;;;;4916781;29;20488;-72
2023/12/01 09:50:49;;;;;;;10.07;5.82;;;4.30;78.60;;;;;;4908448;29;20048;-72
2023/12/01 09:53:16;;;;;;;11.93;6.35;;;4.40;78.70;;;;;;4918116;29;20036;-72
2023/12/01 09:55:43;;;;;;;11.38;6.18;;;4.40;78.70;;;;;;4921929;29;20040;-72
2023/12/01 09:58:10;;;;;;;10.05;5.60;;;4.30;78.60;;;;;;4883273;29;20029;-72
2023/12/01 10:00:36;;;;;;;9.73;5.65;;;4.30;78.60;;;;;;4902200;29;20037;-73
2023/12/01 10:03:02;;;;;;;9.75;5.40;;;4.40;78.70;;;;;;4919476;29;20040;-73
2023/12/01 10:05:32;;;;;;;8.80;5.20;;;4.30;78.60;;;;;;4914924;29;20044;-72
2023/12/01 10:07:58;;;;;;;10.15;5.15;;;4.40;78.70;;;;;;4917379;29;20028;-72
2023/12/01 10:10:26;;;;;;;9.02;5.43;;;4.30;78.60;;;;;;4920788;29;20039;-74
2023/12/01 10:12:59;;;;;;;9.40;5.68;;;4.30;78.60;;;;;;4915604;29;20036;-73
2023/12/01 10:15:27;;;;;;;10.60;6.05;;;4.30;78.60;;;;;;4917125;29;20119;-73
2023/12/01 10:17:54;;;;;;;9.80;5.88;;;4.30;78.60;;;;;;4921156;29;20341;-73
2023/12/01 10:20:21;;;;;;;8.50;5.15;;;4.40;78.60;;;;;;4916683;29;20047;-73
2023/12/01 10:22:51;;;;;;;10.55;6.05;;;4.40;78.60;;;;;;4916670;29;20063;-73
2023/12/01 10:25:17;;;;;;;10.88;5.93;;;4.40;78.60;;;;;;4904428;29;20060;-73
2023/12/01 10:27:54;;;;;;;10.65;5.75;;;4.40;78.60;;;;;;4905969;29;20032;-73
2023/12/01 10:30:20;;;;;;;9.65;5.60;;;4.40;78.70;;;;;;4917265;29;20080;-73
2023/12/01 10:32:47;;;;;;;9.65;5.70;;;4.40;78.60;;;;;;4901893;29;20481;-74
2023/12/01 10:35:13;;;;;;;9.65;5.97;;;4.40;78.60;;;;;;4907922;29;20040;-73
2023/12/01 10:37:39;;;;;;;10.90;5.65;;;4.40;78.60;;;;;;4906124;29;20500;-73
2023/12/01 10:40:05;;;;;;;9.40;5.97;;;4.40;78.60;;;;;;4920027;29;20033;-73
2023/12/01 10:42:36;;;;;;;8.68;5.18;;;4.40;78.50;;;;;;4916367;29;20035;-73
2023/12/01 10:45:03;;;;;;;10.05;5.82;;;4.40;78.60;;;;;;4917004;29;20059;-73
2023/12/01 10:47:29;;;;;;;10.98;5.40;;;4.40;78.50;;;;;;4908270;29;20028;-73
2023/12/01 10:49:58;;;;;;;10.18;5.93;;;4.40;78.50;;;;;;4904508;29;20036;-73
2023/12/01 10:52:25;;;;;;;11.38;6.28;;;4.40;78.50;;;;;;4917551;29;20504;-73
2023/12/01 10:54:57;;;;;;;9.75;5.15;;;4.40;78.50;;;;;;5065903;28;20522;-73
2023/12/01 10:57:23;;;;;;;11.23;6.28;;;4.40;78.50;;;;;;5048454;28;20032;-75
2023/12/01 10:59:54;;;;;;;11.88;6.38;;;4.50;78.50;;;;;;5048689;28;20481;-72
2023/12/01 11:02:23;;;;;;;10.15;5.72;;;4.50;78.60;;;;;;5047045;28;20029;-72
2023/12/01 11:04:49;;;;;;;10.18;5.65;;;4.50;78.50;;;;;;5042603;28;20029;-74
2023/12/01 11:07:40;;;;;;;10.70;5.95;;;4.50;78.50;;;;;;5028812;28;20037;-73
2023/12/01 11:10:25;;;;;;;10.55;6.35;;;4.50;78.50;;;;;;5033893;28;20021;-74
2023/12/01 11:13:12;;;;;;;10.32;6.05;;;4.50;78.50;;;;;;5046345;28;20037;-73
2023/12/01 11:15:41;;;;;;;10.75;5.93;;;4.50;78.50;;;;;;5055593;28;20475;-73
2023/12/01 11:18:10;;;;;;;10.90;6.05;;;4.50;78.50;;;;;;5062457;28;20029;-73
2023/12/01 11:20:40;;;;;;;10.27;5.95;;;4.50;79.10;;;;;;5041139;28;20401;-73
2023/12/01 11:23:10;;;;;;;9.32;5.40;;;4.50;78.50;;;;;;5047093;28;20381;-73
2023/12/01 11:25:50;;;;;;;10.75;6.03;;;4.50;78.50;;;;;;5044165;28;20044;-73
2023/12/01 11:28:27;;;;;;;10.38;5.88;;;4.50;78.50;;;;;;5013565;28;20036;-73
2023/12/01 11:31:09;;;;;;;10.48;6.20;;;4.50;78.50;;;;;;5047659;28;20036;-73
2023/12/01 11:33:52;;;;;;;8.93;5.28;;;4.50;78.50;;;;;;5047628;28;20076;-73
2023/12/01 11:36:35;;;;;;;8.95;5.82;;;4.60;78.50;;;;;;5045458;28;20111;-73
2023/12/01 11:39:09;;;;;;;8.82;5.15;;;4.60;78.50;;;;;;5025239;28;20029;-72
2023/12/01 11:41:49;;;;;;;9.07;6.05;;;4.60;78.50;;;;;;5048687;28;20087;-72
2023/12/01 11:44:18;;;;;;;9.27;5.47;;;4.60;78.50;;;;;;5043303;28;20038;-73
2023/12/01 11:46:47;;;;;;;10.90;6.13;;;4.60;78.50;;;;;;5029452;28;20030;-73
2023/12/01 11:49:14;;;;;;;10.15;5.60;;;4.60;78.50;;;;;;5041373;28;20026;-73
2023/12/01 11:51:43;;;;;;;10.40;5.72;;;4.60;78.50;;;;;;5037686;28;20084;-73
2023/12/01 11:54:11;;;;;;;9.60;5.95;;;4.60;78.50;;;;;;5038715;28;20494;-74
2023/12/01 11:56:37;;;;;;;10.32;6.10;;;4.60;78.40;;;;;;5046140;28;20075;-73
2023/12/01 11:59:02;;;;;;;11.32;5.93;;;4.60;78.40;;;;;;5030694;28;20059;-73
2023/12/01 12:01:31;;;;;;;12.02;6.85;;;4.60;78.40;;;;;;5029024;28;20100;-73
2023/12/01 12:03:58;;;;;;;10.35;5.95;;;4.60;78.50;;;;;;5051509;28;20033;-73
2023/12/01 12:06:25;;;;;;;9.88;5.75;;;4.60;78.40;;;;;;5020703;28;20053;-73
2023/12/01 12:08:52;;;;;;;9.90;5.72;;;4.70;78.50;;;;;;5025753;28;20038;-72
2023/12/01 12:11:18;;;;;;;11.25;6.20;;;4.70;78.50;;;;;;5033318;28;20018;-73
2023/12/01 12:13:53;;;;;;;9.90;6.00;;;4.70;78.50;;;;;;5029326;28;20040;-72
2023/12/01 12:16:20;;;;;;;11.15;6.15;;;4.70;78.40;;;;;;5033060;28;20030;-72
2023/12/01 12:18:48;;;;;;;9.48;5.28;;;4.70;78.40;;;;;;5015625;28;20034;-73
2023/12/01 12:21:14;;;;;;;10.07;5.95;;;4.70;78.40;;;;;;5036736;28;20041;-73
2023/12/01 12:23:40;;;;;;;10.35;5.88;;;4.70;78.40;;;;;;5018339;28;20052;-73
2023/12/01 12:26:38;;;;;;;10.95;6.18;;;4.70;78.40;;;;;;5034972;28;20529;-73
2023/12/01 12:29:05;;;;;;;10.55;5.70;;;4.70;79.10;;;;;;5020683;28;20103;-72
2023/12/01 12:31:35;;;;;;;9.93;5.72;;;4.70;78.40;;;;;;5026614;28;20052;-72
2023/12/01 12:34:03;;;;;;;10.35;6.43;;;4.70;78.40;;;;;;5016456;28;20049;-72
2023/12/01 12:36:33;;;;;;;10.55;6.45;;;4.70;78.40;;;;;;5032586;28;20033;-72
2023/12/01 12:39:01;;;;;;;10.52;5.97;;;4.70;78.40;;;;;;5000352;28;20342;-72
2023/12/01 12:41:31;;;;;;;9.85;5.65;;;4.70;78.40;;;;;;5032828;28;20022;-72
2023/12/01 12:44:00;;;;;;;9.88;5.57;;;4.80;78.40;;;;;;5027237;28;20029;-73
2023/12/01 12:46:28;;;;;;;11.23;6.22;;;4.70;78.40;;;;;;5029019;28;20032;-73